aviador You're here:

SBPA Decoded Metar

PORTO ALEGRE in BRAZIL
Report Time2018-06-24 20:00:00
UTC Time2018-06-24 20:21:06
Flight Rules vfr VFR
Wind120° at 07 kt
W.Decomp.*RWY 11: 6.3 kt HW 3.1 kt RCW
W.Rank120° ranks 3
Current wind is below 120° avg. (7.8)
Visibility9999 m
Phenomena:N/A
Clouds:Broken 035 Hf
Overcast 040 Hf
Expected CloudBase > 1,200 ft AGL from Temp-Dew spread
Ceiling3,500 ft
Temp12°C (ISA -3)
Dew Point09°C (82% RH)
AAT9.3°C
QNH1020 hPa
Density Alt-427 ft
Elevation10 ft
Report Wrong Elevation
Raw Report
METAR SBPA 242000Z 12007KT 9999 BKN035 OVC040 12/09 Q1020=

Extra information for SBPA:More info

Metar Taf Metar & Taf Last 4 Metars F.Rules Stats Wind Profile Meteogram Temp Stats Airport Information Weather charts Add Link Nearby VenuesMetar ALERT Operation Metar Decoded Social comments